Гроссевичи

Карта отелей и гостиниц, располагающихся рядом с аэропортом Гроссевичи :



Гроссевичи Хабаровский край 47° 59' 42.4788" N, 139° 32' 33.1188" E

Гроссевичи Хабаровский край 47° 59' 42.4788" N, 139° 32' 33.1188" E
Код аэродрома ИКАО: 
ZDH6
Код аэродрома RU: 
ЗДХ6
Координаты: 
N47.99513° E139.54253°
Превышение над уровнем моря : 
7
Основная полоса: 
06/24
Курс магнитный: 
063/243
Длина основной ВПП: 
465
Ширина основной ВПП: 
40
Покрытие основной ВПП: 
Нетвёрдое (грунт)
Тип: 
Аэродром
Освещение ВПП: 
Нет
Класс аэродрома: 
Статус: 
Недействующий
Принадлежность: 
МО
Сайт: 
E-mail аэродрома: 
Страна: 
Россия
Регион: 
Хабаровский край
Город: 
Дополнительная информация: 
В годы 2-й Мировой войны базировался 42-й ИАП на И-15, И-16, ЛаГГ-3, Як-9.

Найти трансфер

С помощью этой формы Вы можете найти трансфер из аэропорта Гроссевичи в город, аэропорт или вокзал:

Карта места

Javascript is required to view this map.

Погода в аэропортах:

Авиационная погода в Богашево

Регион: 
Погода METAR: 
UNTT 210400Z 23007MPS 5000 -SHSN SCT013 BKN020CB M05/M06 Q1017 R21/490337 NOSIG RMK QFE747
Время наблюдения: 
2020-02-21T04:00:00Z
Температура C: 
-5.0
Точка росы: 
-6.0
Направление ветра: 
230
Скорость ветра: 
14
Метеорологическая видимость: 
3.11
Явления погоды: 
-SHSN
Условия полета: 
MVFR
Аэропорт подробнее: 

Авиационная погода в Симферополе

Погода METAR: 
URFF 210400Z 05006MPS 0700 0650S R01/1400D FG VV002 02/02 Q1017 R01/090095 BECMG 0400 -DZ FG RMK OBST OBSC
Время наблюдения: 
2020-02-21T04:00:00Z
Температура C: 
2.0
Точка росы: 
2.0
Направление ветра: 
50
Скорость ветра: 
12
Метеорологическая видимость: 
0.43
Явления погоды: 
FG
Условия полета: 
LIFR
Аэропорт подробнее: 

Авиационная погода в Калуге (Грабцево)

Регион: 
Погода METAR: 
UUBC 210400Z 00000MPS 5000 BR NSC M05/M05 Q1021 R31/120060 TEMPO 1500 BR RMK QFE749/0998
Время наблюдения: 
2020-02-21T04:00:00Z
Температура C: 
-5.0
Точка росы: 
-5.0
Направление ветра: 
0
Скорость ветра: 
0
Метеорологическая видимость: 
3.11
Явления погоды: 
BR
Условия полета: 
MVFR

Авиационная погода в Кневичи

Регион: 
Погода METAR: 
UHWW 210400Z 10002MPS 060V130 5000 -SHSN BKN020CB M01/M04 Q1029 R25L/0///70 TEMPO 0400 +SHSN VV002 RMK QFE770
Время наблюдения: 
2020-02-21T04:00:00Z
Температура C: 
-1.0
Точка росы: 
-4.0
Направление ветра: 
100
Скорость ветра: 
4
Метеорологическая видимость: 
3.11
Явления погоды: 
-SHSN
Условия полета: 
MVFR
Аэропорт подробнее: